createdAt,value
2023-10-09T00:01:18.792Z,19.15
2023-10-09T00:03:46.924Z,19.25
2023-10-09T00:06:14.897Z,18.60
2023-10-09T00:08:45.968Z,18.65
2023-10-09T00:11:15.650Z,18.50
2023-10-09T00:13:53.571Z,19.92
2023-10-09T00:16:33.941Z,16.70
2023-10-09T00:19:15.559Z,17.08
2023-10-09T00:21:42.956Z,15.45
2023-10-09T00:24:17.661Z,15.57
2023-10-09T00:26:47.336Z,15.30
2023-10-09T00:29:16.314Z,14.57
2023-10-09T00:31:51.134Z,16.17
2023-10-09T00:34:22.100Z,14.48
2023-10-09T00:36:53.018Z,14.98
2023-10-09T00:39:39.193Z,14.23
2023-10-09T00:42:08.073Z,13.95
2023-10-09T00:44:42.537Z,13.52
2023-10-09T00:47:27.578Z,14.07
2023-10-09T00:50:11.945Z,13.75
2023-10-09T00:52:51.055Z,13.70
2023-10-09T00:55:40.504Z,13.50
2023-10-09T00:58:13.711Z,13.03
2023-10-09T01:00:44.629Z,12.85
2023-10-09T01:03:19.401Z,13.68
2023-10-09T01:06:09.797Z,13.23
2023-10-09T01:08:42.985Z,13.80
2023-10-09T01:11:24.036Z,13.75
2023-10-09T01:13:51.444Z,14.20
2023-10-09T01:16:20.192Z,14.43
2023-10-09T01:18:51.509Z,13.98
2023-10-09T01:21:19.338Z,14.05
2023-10-09T01:24:05.870Z,14.40
2023-10-09T01:26:40.449Z,15.32
2023-10-09T01:29:18.720Z,14.40
2023-10-09T01:31:55.886Z,14.77
2023-10-09T01:34:45.929Z,15.38
2023-10-09T01:37:23.762Z,15.00
2023-10-09T01:39:52.701Z,15.57
2023-10-09T01:42:36.144Z,15.10
2023-10-09T01:45:12.736Z,14.30
2023-10-09T01:47:39.991Z,14.52
2023-10-09T01:50:14.981Z,13.43
2023-10-09T01:52:43.762Z,14.50
2023-10-09T01:55:14.940Z,13.60
2023-10-09T01:57:45.656Z,15.07
2023-10-09T02:00:17.771Z,13.50
2023-10-09T02:02:46.259Z,13.60
2023-10-09T02:05:15.886Z,12.50
2023-10-09T02:07:52.454Z,13.27
2023-10-09T02:10:30.354Z,13.65
2023-10-09T02:12:59.526Z,13.32
2023-10-09T02:16:01.837Z,13.77
2023-10-09T02:18:28.646Z,13.95
2023-10-09T02:21:15.797Z,13.40
2023-10-09T02:23:45.616Z,13.57
2023-10-09T02:26:32.410Z,13.15
2023-10-09T02:29:21.514Z,13.10
2023-10-09T02:31:52.911Z,14.90
2023-10-09T02:34:26.585Z,14.00
2023-10-09T02:37:05.643Z,14.65
2023-10-09T02:39:44.404Z,13.80
2023-10-09T02:42:13.993Z,13.82
2023-10-09T02:44:47.237Z,14.10
2023-10-09T02:47:21.573Z,13.82
2023-10-09T02:49:49.561Z,13.73
2023-10-09T02:52:20.199Z,14.75
2023-10-09T02:54:53.891Z,13.75
2023-10-09T02:57:24.885Z,14.45
2023-10-09T02:59:52.770Z,14.07
2023-10-09T03:02:20.398Z,13.48
2023-10-09T03:04:47.296Z,13.93
2023-10-09T03:07:15.051Z,13.88
2023-10-09T03:09:42.179Z,15.02
2023-10-09T03:12:12.941Z,13.55
2023-10-09T03:14:42.241Z,14.00
2023-10-09T03:17:15.444Z,15.73
2023-10-09T03:19:44.770Z,13.90
2023-10-09T03:22:12.756Z,14.40
2023-10-09T03:24:48.893Z,14.02
2023-10-09T03:27:18.355Z,13.15
2023-10-09T03:29:50.860Z,13.20
2023-10-09T03:32:18.039Z,13.32
2023-10-09T03:34:44.965Z,13.18
2023-10-09T03:37:23.340Z,14.40
2023-10-09T03:39:52.910Z,13.80
2023-10-09T03:42:23.713Z,14.67
2023-10-09T03:44:54.690Z,14.23
2023-10-09T03:47:25.456Z,14.60
2023-10-09T03:49:54.792Z,13.02
2023-10-09T03:52:26.422Z,13.13
2023-10-09T03:54:53.433Z,13.15
2023-10-09T03:57:21.276Z,12.77
2023-10-09T03:59:48.262Z,13.23
2023-10-09T04:02:17.921Z,13.55
2023-10-09T04:04:51.778Z,12.18
2023-10-09T04:07:18.765Z,13.05
2023-10-09T04:10:11.444Z,12.98
2023-10-09T04:12:40.711Z,11.82
2023-10-09T04:15:16.240Z,12.63
2023-10-09T04:17:44.390Z,11.50
2023-10-09T04:20:20.857Z,12.50
2023-10-09T04:23:06.822Z,11.98
2023-10-09T04:25:43.423Z,12.43
2023-10-09T04:28:12.955Z,12.88
2023-10-09T04:31:00.110Z,11.40
2023-10-09T04:33:36.487Z,12.40
2023-10-09T04:36:22.359Z,12.70
2023-10-09T04:39:05.649Z,11.27
2023-10-09T04:41:53.152Z,12.80
2023-10-09T04:44:21.873Z,11.35
2023-10-09T04:47:14.098Z,12.10
2023-10-09T04:50:02.812Z,11.60
2023-10-09T04:52:29.708Z,11.18
2023-10-09T04:55:17.548Z,10.50
2023-10-09T04:57:45.408Z,10.90
2023-10-09T05:00:29.155Z,10.23
2023-10-09T05:02:57.801Z,10.85
2023-10-09T05:05:45.252Z,10.73
2023-10-09T05:08:29.832Z,10.32
2023-10-09T05:11:06.825Z,10.45
2023-10-09T05:13:41.110Z,10.95
2023-10-09T05:16:27.841Z,11.32
2023-10-09T05:18:58.874Z,10.93
2023-10-09T05:21:43.795Z,10.80
2023-10-09T05:24:14.931Z,11.05
2023-10-09T05:26:47.744Z,10.98
2023-10-09T05:29:20.558Z,10.82
2023-10-09T05:32:06.068Z,10.88
2023-10-09T05:34:37.846Z,11.05
2023-10-09T05:37:26.237Z,10.52
2023-10-09T05:40:02.951Z,10.82
2023-10-09T05:42:44.705Z,10.40
2023-10-09T05:45:33.169Z,10.20
2023-10-09T05:48:25.845Z,9.85
2023-10-09T05:51:10.695Z,10.45
2023-10-09T05:53:46.821Z,9.73
2023-10-09T05:56:32.537Z,9.70
2023-10-09T05:59:18.213Z,9.45
2023-10-09T06:02:00.041Z,9.45
2023-10-09T06:04:45.742Z,9.90
2023-10-09T06:07:15.400Z,8.57
2023-10-09T06:09:51.840Z,10.03
2023-10-09T06:12:31.337Z,9.98
2023-10-09T06:15:27.861Z,9.32
2023-10-09T06:18:01.255Z,8.85
2023-10-09T06:20:46.693Z,9.70
2023-10-09T06:23:39.364Z,8.70
2023-10-09T06:26:24.747Z,8.65
2023-10-09T06:29:12.560Z,8.52
2023-10-09T06:31:58.031Z,8.32
2023-10-09T06:34:33.853Z,8.75
2023-10-09T06:37:07.035Z,8.80
2023-10-09T06:39:54.453Z,8.60
2023-10-09T06:42:39.852Z,8.65
2023-10-09T06:45:13.315Z,9.85
2023-10-09T06:47:42.957Z,9.40
2023-10-09T06:50:23.383Z,9.85
2023-10-09T06:55:38.065Z,9.05
2023-10-09T06:58:11.224Z,9.70
2023-10-09T07:01:02.078Z,9.38
2023-10-09T07:03:36.070Z,9.30
2023-10-09T07:06:26.379Z,8.65
2023-10-09T07:09:06.603Z,9.65
2023-10-09T07:11:43.176Z,10.05
2023-10-09T07:14:33.185Z,9.65
2023-10-09T07:17:23.443Z,9.27
2023-10-09T07:19:52.395Z,9.48
2023-10-09T07:22:22.096Z,9.60
2023-10-09T07:24:51.169Z,9.63
2023-10-09T07:27:41.503Z,9.85
2023-10-09T07:32:55.891Z,9.80
2023-10-09T07:35:45.883Z,8.52
2023-10-09T07:38:21.774Z,9.45
2023-10-09T07:41:08.343Z,9.88
2023-10-09T07:43:45.829Z,9.63
2023-10-09T07:46:53.386Z,10.05
2023-10-09T07:49:26.661Z,10.13
2023-10-09T07:51:59.900Z,10.32
2023-10-09T07:54:53.164Z,9.95
2023-10-09T07:57:26.810Z,9.65
2023-10-09T08:00:02.064Z,8.80
2023-10-09T08:02:35.494Z,9.60
2023-10-09T08:05:07.966Z,9.35
2023-10-09T08:08:05.605Z,9.60
2023-10-09T08:10:25.140Z,9.40
2023-10-09T08:12:51.983Z,9.82
2023-10-09T08:15:19.608Z,8.93
2023-10-09T08:18:26.222Z,9.75
2023-10-09T08:20:58.790Z,8.93
2023-10-09T08:23:34.917Z,8.80
2023-10-09T08:26:14.389Z,8.88
2023-10-09T08:28:46.240Z,9.02
2023-10-09T08:31:20.653Z,9.00
2023-10-09T08:36:37.587Z,9.20
2023-10-09T08:39:26.451Z,9.20
2023-10-09T08:41:54.464Z,9.30
2023-10-09T08:44:26.423Z,8.60
2023-10-09T08:46:55.379Z,8.73
2023-10-09T08:49:25.375Z,8.90
2023-10-09T08:51:53.758Z,8.73
2023-10-09T08:54:20.945Z,7.95
2023-10-09T08:56:51.439Z,8.50
2023-10-09T08:59:21.757Z,7.90
2023-10-09T09:01:50.550Z,7.95
2023-10-09T09:04:39.718Z,7.95
2023-10-09T09:07:23.909Z,8.13
2023-10-09T09:10:18.519Z,7.88
2023-10-09T09:12:46.833Z,8.00
2023-10-09T09:15:20.964Z,8.02
2023-10-09T09:17:50.566Z,7.82
2023-10-09T09:20:33.113Z,8.18
2023-10-09T09:23:01.719Z,8.05
2023-10-09T09:25:59.978Z,8.73
2023-10-09T09:28:28.183Z,8.15
2023-10-09T09:30:57.717Z,8.18
2023-10-09T09:33:44.839Z,8.35
2023-10-09T09:36:12.494Z,7.70
2023-10-09T09:38:52.424Z,8.23
2023-10-09T09:41:26.179Z,7.40
2023-10-09T09:43:58.382Z,7.47
2023-10-09T09:46:35.462Z,7.28
2023-10-09T09:49:08.449Z,7.15
2023-10-09T09:51:35.756Z,6.45
2023-10-09T09:54:03.792Z,6.57
2023-10-09T09:56:32.288Z,6.57
2023-10-09T09:59:05.498Z,6.45
2023-10-09T10:01:36.592Z,6.30
2023-10-09T10:04:15.330Z,6.75
2023-10-09T10:06:46.406Z,6.72
2023-10-09T10:09:40.382Z,6.13
2023-10-09T10:12:11.165Z,6.68
2023-10-09T10:15:00.774Z,6.28
2023-10-09T10:17:30.661Z,6.82
2023-10-09T10:20:23.138Z,6.57
2023-10-09T10:22:50.096Z,6.15
2023-10-09T10:25:36.832Z,6.30
2023-10-09T10:28:44.307Z,5.90
2023-10-09T10:31:14.797Z,5.85
2023-10-09T10:34:11.756Z,5.82
2023-10-09T10:36:43.562Z,6.22
2023-10-09T10:39:19.927Z,6.13
2023-10-09T10:41:58.528Z,5.82
2023-10-09T10:44:40.085Z,6.15
2023-10-09T10:47:25.270Z,5.88
2023-10-09T10:49:59.985Z,6.25
2023-10-09T10:52:37.048Z,5.85
2023-10-09T10:55:30.094Z,5.43
2023-10-09T10:57:58.331Z,5.65
2023-10-09T11:00:43.826Z,5.95
2023-10-09T11:03:19.205Z,5.57
2023-10-09T11:05:52.160Z,5.80
2023-10-09T11:08:24.479Z,6.28
2023-10-09T11:10:52.101Z,5.80
2023-10-09T11:13:32.286Z,5.72
2023-10-09T11:16:15.768Z,5.75
2023-10-09T11:18:49.010Z,5.63
2023-10-09T11:21:16.536Z,5.85
2023-10-09T11:23:53.079Z,5.40
2023-10-09T11:26:29.962Z,5.40
2023-10-09T11:29:15.741Z,5.70
2023-10-09T11:32:03.362Z,5.88
2023-10-09T11:34:31.030Z,5.28
2023-10-09T11:37:02.152Z,5.90
2023-10-09T11:39:36.062Z,5.43
2023-10-09T11:42:07.990Z,5.20
2023-10-09T11:44:45.919Z,5.63
2023-10-09T11:47:19.426Z,5.63
2023-10-09T11:50:19.744Z,5.50
2023-10-09T11:55:42.385Z,5.10
2023-10-09T11:58:10.024Z,5.30
2023-10-09T12:00:46.969Z,5.45
2023-10-09T12:03:15.851Z,5.00
2023-10-09T12:05:45.205Z,4.90
2023-10-09T12:08:16.477Z,5.27
2023-10-09T12:10:43.810Z,5.30
2023-10-09T12:13:10.804Z,5.50
2023-10-09T12:15:40.835Z,5.30
2023-10-09T12:18:16.149Z,5.65
2023-10-09T12:20:46.152Z,5.38
2023-10-09T12:23:16.008Z,5.20
2023-10-09T12:25:45.900Z,5.15
2023-10-09T12:28:16.732Z,4.93
2023-10-09T12:30:43.620Z,4.97
2023-10-09T12:33:10.584Z,5.70
2023-10-09T12:35:41.472Z,5.93
2023-10-09T12:38:11.834Z,5.15
2023-10-09T12:40:40.811Z,5.80
2023-10-09T12:43:16.398Z,5.50
2023-10-09T12:45:43.646Z,5.50
2023-10-09T12:48:11.039Z,5.75
2023-10-09T12:50:45.369Z,5.03
2023-10-09T12:53:18.465Z,4.97
2023-10-09T12:55:45.297Z,5.38
2023-10-09T12:58:22.445Z,4.90
2023-10-09T13:00:52.297Z,4.70
2023-10-09T13:03:20.074Z,5.03
2023-10-09T13:05:57.802Z,5.93
2023-10-09T13:08:33.069Z,5.45
2023-10-09T13:11:11.760Z,5.28
2023-10-09T13:13:44.290Z,5.32
2023-10-09T13:16:15.579Z,5.25
2023-10-09T13:18:51.169Z,5.60
2023-10-09T13:21:27.311Z,6.00
2023-10-09T13:23:58.672Z,5.57
2023-10-09T13:26:34.939Z,5.90
2023-10-09T13:29:03.985Z,5.20
2023-10-09T13:31:35.298Z,5.20
2023-10-09T13:34:07.597Z,5.55
2023-10-09T13:36:35.438Z,5.50
2023-10-09T13:39:25.769Z,5.47
2023-10-09T13:42:01.604Z,5.75
2023-10-09T13:44:29.300Z,5.72
2023-10-09T13:47:02.490Z,6.10
2023-10-09T13:49:32.312Z,5.72
2023-10-09T13:52:04.021Z,5.63
2023-10-09T13:54:35.201Z,5.43
2023-10-09T13:57:05.772Z,5.10
2023-10-09T13:59:37.154Z,5.18
2023-10-09T14:02:11.256Z,5.38
2023-10-09T14:04:38.739Z,5.10
2023-10-09T14:07:09.499Z,5.18
2023-10-09T14:09:39.562Z,5.05
2023-10-09T14:12:11.592Z,5.20
2023-10-09T14:14:49.581Z,5.28
2023-10-09T14:17:25.118Z,5.50
2023-10-09T14:19:53.947Z,5.10
2023-10-09T14:22:25.456Z,5.30
2023-10-09T14:24:56.662Z,5.07
2023-10-09T14:27:30.615Z,4.68
2023-10-09T14:30:00.754Z,5.20
2023-10-09T14:35:02.779Z,5.47
2023-10-09T14:37:30.093Z,5.50
2023-10-09T14:39:59.274Z,5.28
2023-10-09T14:42:28.891Z,6.07
2023-10-09T14:44:56.950Z,5.97
2023-10-09T14:47:24.217Z,5.88
2023-10-09T14:49:51.525Z,5.97
2023-10-09T14:52:19.832Z,5.70
2023-10-09T14:54:47.191Z,5.82
2023-10-09T14:57:14.964Z,5.60
2023-10-09T14:59:44.105Z,5.90
2023-10-09T15:02:13.458Z,5.30
2023-10-09T15:04:41.014Z,5.53
2023-10-09T15:07:08.175Z,5.20
2023-10-09T15:09:37.605Z,5.80
2023-10-09T15:12:08.402Z,6.78
2023-10-09T15:14:35.410Z,5.85
2023-10-09T15:17:03.532Z,5.88
2023-10-09T15:19:31.085Z,6.50
2023-10-09T15:22:00.003Z,6.38
2023-10-09T15:24:31.464Z,6.40
2023-10-09T15:26:58.656Z,6.00
2023-10-09T15:29:29.474Z,5.80
2023-10-09T15:31:57.149Z,5.43
2023-10-09T15:34:25.834Z,5.45
2023-10-09T15:36:54.786Z,5.07
2023-10-09T15:39:22.561Z,6.03
2023-10-09T15:41:50.050Z,6.30
2023-10-09T15:44:17.834Z,5.68
2023-10-09T15:46:48.024Z,5.97
2023-10-09T15:49:17.923Z,5.97
2023-10-09T15:51:44.922Z,6.32
2023-10-09T15:54:13.721Z,5.70
2023-10-09T15:56:47.317Z,6.43
2023-10-09T15:59:18.195Z,5.68
2023-10-09T16:01:45.285Z,6.45
2023-10-09T16:04:12.515Z,6.40
2023-10-09T16:06:40.995Z,6.20
2023-10-09T16:09:12.411Z,6.35
2023-10-09T16:11:40.904Z,5.85
2023-10-09T16:14:10.747Z,5.72
2023-10-09T16:16:42.785Z,6.20
2023-10-09T16:19:13.489Z,6.10
2023-10-09T16:21:40.654Z,6.40
2023-10-09T16:24:11.160Z,5.82
2023-10-09T16:26:42.909Z,6.22
2023-10-09T16:29:10.876Z,6.20
2023-10-09T16:31:41.165Z,6.32
2023-10-09T16:34:09.063Z,5.45
2023-10-09T16:36:38.893Z,5.30
2023-10-09T16:39:05.894Z,5.25
2023-10-09T16:41:41.131Z,5.88
2023-10-09T16:44:11.663Z,6.07
2023-10-09T16:49:09.667Z,6.38
2023-10-09T16:51:36.631Z,6.40
2023-10-09T16:54:04.337Z,5.60
2023-10-09T16:56:34.618Z,5.93
2023-10-09T16:59:02.068Z,5.63
2023-10-09T17:01:29.433Z,4.90
2023-10-09T17:03:58.888Z,5.55
2023-10-09T17:06:30.195Z,4.95
2023-10-09T17:08:58.235Z,5.38
2023-10-09T17:11:25.775Z,5.18
2023-10-09T17:13:55.864Z,5.28
2023-10-09T17:16:25.297Z,5.60
2023-10-09T17:18:57.515Z,5.25
2023-10-09T17:21:24.856Z,5.57
2023-10-09T17:23:56.605Z,5.63
2023-10-09T17:26:26.190Z,5.78
2023-10-09T17:28:53.430Z,6.28
2023-10-09T17:31:21.695Z,5.97
2023-10-09T17:33:54.921Z,5.80
2023-10-09T17:36:22.230Z,5.80
2023-10-09T17:38:51.299Z,6.63
2023-10-09T17:41:19.105Z,6.33
2023-10-09T17:43:46.101Z,6.40
2023-10-09T17:46:13.168Z,6.97
2023-10-09T17:48:40.396Z,6.70
2023-10-09T17:51:09.945Z,6.55
2023-10-09T17:53:39.691Z,6.95
2023-10-09T17:56:07.764Z,7.28
2023-10-09T17:58:35.258Z,7.07
2023-10-09T18:01:09.499Z,7.18
2023-10-09T18:03:39.476Z,7.22
2023-10-09T18:06:06.603Z,7.53
2023-10-09T18:08:33.656Z,7.35
2023-10-09T18:11:01.742Z,7.72
2023-10-09T18:13:28.823Z,7.55
2023-10-09T18:16:09.704Z,7.85
2023-10-09T18:18:37.928Z,6.72
2023-10-09T18:21:07.222Z,7.35
2023-10-09T18:23:35.080Z,6.82
2023-10-09T18:26:02.455Z,6.78
2023-10-09T18:28:29.739Z,7.60
2023-10-09T18:30:56.571Z,7.05
2023-10-09T18:33:24.453Z,6.88
2023-10-09T18:35:51.243Z,7.20
2023-10-09T18:38:18.115Z,7.40
2023-10-09T18:40:48.442Z,7.75
2023-10-09T18:43:15.900Z,7.10
2023-10-09T18:45:43.740Z,6.88
2023-10-09T18:48:19.157Z,6.00
2023-10-09T18:50:46.296Z,7.35
2023-10-09T18:53:14.335Z,7.40
2023-10-09T18:55:41.832Z,6.47
2023-10-09T18:58:12.700Z,7.43
2023-10-09T19:00:50.153Z,6.68
2023-10-09T19:03:19.024Z,7.00
2023-10-09T19:05:46.546Z,6.70
2023-10-09T19:08:13.598Z,7.20
2023-10-09T19:10:42.540Z,6.72
2023-10-09T19:13:11.317Z,6.88
2023-10-09T19:15:42.303Z,6.07
2023-10-09T19:18:15.082Z,7.30
2023-10-09T19:20:43.829Z,6.22
2023-10-09T19:23:12.610Z,5.97
2023-10-09T19:25:44.030Z,6.10
2023-10-09T19:28:13.250Z,5.88
2023-10-09T19:30:40.138Z,6.15
2023-10-09T19:33:07.116Z,6.57
2023-10-09T19:35:34.472Z,6.35
2023-10-09T19:38:01.733Z,5.85
2023-10-09T19:40:29.275Z,5.68
2023-10-09T19:42:56.709Z,5.10
2023-10-09T19:45:23.528Z,5.30
2023-10-09T19:47:50.876Z,5.22
2023-10-09T19:50:18.377Z,5.50
2023-10-09T19:52:46.483Z,5.68
2023-10-09T19:55:13.722Z,4.90
2023-10-09T19:57:41.003Z,5.15
2023-10-09T20:00:12.131Z,4.95
2023-10-09T20:02:39.927Z,4.88
2023-10-09T20:05:07.450Z,4.68
2023-10-09T20:07:34.424Z,4.60
2023-10-09T20:10:02.629Z,4.68
2023-10-09T20:12:31.008Z,4.80
2023-10-09T20:14:58.179Z,5.30
2023-10-09T20:17:25.606Z,5.43
2023-10-09T20:19:54.228Z,6.15
2023-10-09T20:22:21.771Z,6.57
2023-10-09T20:24:48.615Z,6.20
2023-10-09T20:27:18.606Z,6.25
2023-10-09T20:29:47.746Z,6.82
2023-10-09T20:32:15.336Z,7.88
2023-10-09T20:34:44.809Z,8.02
2023-10-09T20:37:13.491Z,8.20
2023-10-09T20:39:41.950Z,8.48
2023-10-09T20:42:08.808Z,8.55
2023-10-09T20:44:36.640Z,8.43
2023-10-09T20:47:04.308Z,9.38
2023-10-09T20:49:33.099Z,7.88
2023-10-09T20:51:59.929Z,9.07
2023-10-09T20:54:26.993Z,8.90
2023-10-09T20:56:53.842Z,8.65
2023-10-09T20:59:21.159Z,7.88
2023-10-09T21:01:48.048Z,7.75
2023-10-09T21:04:15.177Z,9.05
2023-10-09T21:06:42.018Z,9.18
2023-10-09T21:09:09.127Z,8.25
2023-10-09T21:11:35.923Z,8.45
2023-10-09T21:14:02.802Z,8.20
2023-10-09T21:16:29.655Z,8.55
2023-10-09T21:18:57.112Z,8.77
2023-10-09T21:21:24.860Z,7.57
2023-10-09T21:23:51.738Z,8.63
2023-10-09T21:26:20.484Z,8.35
2023-10-09T21:28:49.111Z,7.97
2023-10-09T21:31:17.380Z,8.02
2023-10-09T21:33:50.909Z,8.43
2023-10-09T21:36:18.426Z,8.23
2023-10-09T21:38:45.588Z,8.18
2023-10-09T21:41:13.736Z,8.52
2023-10-09T21:43:41.736Z,9.30
2023-10-09T21:46:11.835Z,8.98
2023-10-09T21:48:39.600Z,7.97
2023-10-09T21:51:10.284Z,8.35
2023-10-09T21:53:37.866Z,9.52
2023-10-09T21:56:09.309Z,10.60
2023-10-09T21:58:36.467Z,9.93
2023-10-09T22:01:04.348Z,8.52
2023-10-09T22:03:32.436Z,10.50
2023-10-09T22:06:00.253Z,9.57
2023-10-09T22:08:27.302Z,9.57
2023-10-09T22:10:54.788Z,10.55
2023-10-09T22:13:23.024Z,9.15
2023-10-09T22:15:50.049Z,9.90
2023-10-09T22:18:25.374Z,10.27
2023-10-09T22:20:58.105Z,9.23
2023-10-09T22:23:34.763Z,10.13
2023-10-09T22:26:02.099Z,9.15
2023-10-09T22:28:30.341Z,10.20
2023-10-09T22:31:02.482Z,10.38
2023-10-09T22:33:46.238Z,10.55
2023-10-09T22:39:09.038Z,10.77
2023-10-09T22:41:36.076Z,11.57
2023-10-09T22:44:11.473Z,9.90
2023-10-09T22:46:41.898Z,9.65
2023-10-09T22:49:15.806Z,9.07
2023-10-09T22:51:52.036Z,9.25
2023-10-09T22:54:35.268Z,9.00
2023-10-09T22:57:03.780Z,8.85
2023-10-09T22:59:30.873Z,8.73
2023-10-09T23:02:00.807Z,8.90
2023-10-09T23:04:40.367Z,9.00
2023-10-09T23:07:15.804Z,9.03
2023-10-09T23:09:55.138Z,8.50
2023-10-09T23:12:26.900Z,7.82
2023-10-09T23:14:56.589Z,8.45
2023-10-09T23:17:43.714Z,8.85
2023-10-09T23:20:17.493Z,9.40
2023-10-09T23:22:51.083Z,9.10
2023-10-09T23:25:34.344Z,10.73
2023-10-09T23:28:22.858Z,10.10
2023-10-09T23:30:53.570Z,8.85
2023-10-09T23:33:23.356Z,9.40
2023-10-09T23:35:57.368Z,10.23
2023-10-09T23:38:44.590Z,9.15
2023-10-09T23:41:11.824Z,9.20
2023-10-09T23:43:48.141Z,8.50
2023-10-09T23:46:19.334Z,8.35
2023-10-09T23:48:46.364Z,9.20
2023-10-09T23:51:20.013Z,10.05
2023-10-09T23:53:52.993Z,11.18
2023-10-09T23:56:40.349Z,11.38
2023-10-09T23:59:12.690Z,10.43
